sensor_id;sensor_type;location;lat;lon;timestamp;P1;durP1;ratioP1;P2;durP2;ratioP2
68680;SDS011;55836;49.858;6.756;2022-08-19T00:00:33;11.73;;;10.07;;
68680;SDS011;55836;49.858;6.756;2022-08-19T00:02:59;11.90;;;10.00;;
68680;SDS011;55836;49.858;6.756;2022-08-19T00:05:25;10.77;;;9.67;;
68680;SDS011;55836;49.858;6.756;2022-08-19T00:07:51;10.53;;;9.53;;
68680;SDS011;55836;49.858;6.756;2022-08-19T00:10:19;10.30;;;9.33;;
68680;SDS011;55836;49.858;6.756;2022-08-19T00:12:45;10.23;;;9.33;;
68680;SDS011;55836;49.858;6.756;2022-08-19T00:15:12;10.67;;;9.67;;
68680;SDS011;55836;49.858;6.756;2022-08-19T00:17:39;11.37;;;10.27;;
68680;SDS011;55836;49.858;6.756;2022-08-19T00:20:06;13.00;;;10.17;;
68680;SDS011;55836;49.858;6.756;2022-08-19T00:22:32;10.63;;;9.63;;
68680;SDS011;55836;49.858;6.756;2022-08-19T00:24:59;11.77;;;9.63;;
68680;SDS011;55836;49.858;6.756;2022-08-19T00:27:25;10.73;;;9.63;;
68680;SDS011;55836;49.858;6.756;2022-08-19T00:29:51;11.40;;;10.30;;
68680;SDS011;55836;49.858;6.756;2022-08-19T00:32:17;10.00;;;9.10;;
68680;SDS011;55836;49.858;6.756;2022-08-19T00:34:43;9.70;;;8.73;;
68680;SDS011;55836;49.858;6.756;2022-08-19T00:37:09;12.43;;;9.70;;
68680;SDS011;55836;49.858;6.756;2022-08-19T00:39:35;10.57;;;9.57;;
68680;SDS011;55836;49.858;6.756;2022-08-19T00:42:01;11.07;;;9.50;;
68680;SDS011;55836;49.858;6.756;2022-08-19T00:44:28;14.53;;;11.37;;
68680;SDS011;55836;49.858;6.756;2022-08-19T00:46:56;13.47;;;12.17;;
68680;SDS011;55836;49.858;6.756;2022-08-19T00:52:17;13.07;;;11.80;;
68680;SDS011;55836;49.858;6.756;2022-08-19T00:54:45;13.63;;;12.33;;
68680;SDS011;55836;49.858;6.756;2022-08-19T00:57:13;11.60;;;10.53;;
68680;SDS011;55836;49.858;6.756;2022-08-19T00:59:41;12.00;;;10.83;;
68680;SDS011;55836;49.858;6.756;2022-08-19T01:02:07;10.47;;;9.57;;
68680;SDS011;55836;49.858;6.756;2022-08-19T01:04:33;11.40;;;9.80;;
68680;SDS011;55836;49.858;6.756;2022-08-19T01:06:59;13.07;;;11.87;;
68680;SDS011;55836;49.858;6.756;2022-08-19T01:09:27;12.90;;;11.57;;
68680;SDS011;55836;49.858;6.756;2022-08-19T01:11:53;13.00;;;11.70;;
68680;SDS011;55836;49.858;6.756;2022-08-19T01:14:19;13.20;;;11.40;;
68680;SDS011;55836;49.858;6.756;2022-08-19T01:16:45;14.43;;;12.53;;
68680;SDS011;55836;49.858;6.756;2022-08-19T01:19:14;12.60;;;11.17;;
68680;SDS011;55836;49.858;6.756;2022-08-19T01:21:42;13.07;;;11.70;;
68680;SDS011;55836;49.858;6.756;2022-08-19T01:24:10;10.50;;;9.40;;
68680;SDS011;55836;49.858;6.756;2022-08-19T01:26:40;13.00;;;10.27;;
68680;SDS011;55836;49.858;6.756;2022-08-19T01:29:08;10.10;;;9.20;;
68680;SDS011;55836;49.858;6.756;2022-08-19T01:31:34;9.97;;;8.93;;
68680;SDS011;55836;49.858;6.756;2022-08-19T01:34:01;10.33;;;9.37;;
68680;SDS011;55836;49.858;6.756;2022-08-19T01:36:32;10.97;;;9.87;;
68680;SDS011;55836;49.858;6.756;2022-08-19T01:38:59;10.80;;;9.80;;
68680;SDS011;55836;49.858;6.756;2022-08-19T01:41:25;10.87;;;9.93;;
68680;SDS011;55836;49.858;6.756;2022-08-19T01:43:52;11.10;;;10.00;;
68680;SDS011;55836;49.858;6.756;2022-08-19T01:46:18;11.37;;;10.33;;
68680;SDS011;55836;49.858;6.756;2022-08-19T01:48:44;11.43;;;9.50;;
68680;SDS011;55836;49.858;6.756;2022-08-19T01:51:11;10.20;;;9.17;;
68680;SDS011;55836;49.858;6.756;2022-08-19T01:53:37;10.20;;;9.23;;
68680;SDS011;55836;49.858;6.756;2022-08-19T01:56:05;9.67;;;8.70;;
68680;SDS011;55836;49.858;6.756;2022-08-19T01:58:51;11.50;;;9.73;;
68680;SDS011;55836;49.858;6.756;2022-08-19T02:01:19;10.03;;;9.10;;
68680;SDS011;55836;49.858;6.756;2022-08-19T02:03:45;10.60;;;9.70;;
68680;SDS011;55836;49.858;6.756;2022-08-19T02:06:11;9.83;;;8.90;;
68680;SDS011;55836;49.858;6.756;2022-08-19T02:08:38;9.27;;;8.40;;
68680;SDS011;55836;49.858;6.756;2022-08-19T02:11:04;10.20;;;9.30;;
68680;SDS011;55836;49.858;6.756;2022-08-19T02:13:31;10.43;;;9.40;;
68680;SDS011;55836;49.858;6.756;2022-08-19T02:15:57;10.20;;;9.20;;
68680;SDS011;55836;49.858;6.756;2022-08-19T02:18:23;13.63;;;9.60;;
68680;SDS011;55836;49.858;6.756;2022-08-19T02:20:49;10.73;;;9.80;;
68680;SDS011;55836;49.858;6.756;2022-08-19T02:23:16;10.47;;;9.47;;
68680;SDS011;55836;49.858;6.756;2022-08-19T02:25:43;11.37;;;10.27;;
68680;SDS011;55836;49.858;6.756;2022-08-19T02:28:11;10.47;;;9.57;;
68680;SDS011;55836;49.858;6.756;2022-08-19T02:30:37;10.93;;;10.00;;
68680;SDS011;55836;49.858;6.756;2022-08-19T02:33:04;13.70;;;11.10;;
68680;SDS011;55836;49.858;6.756;2022-08-19T02:35:30;12.80;;;10.63;;
68680;SDS011;55836;49.858;6.756;2022-08-19T02:37:56;11.63;;;10.53;;
68680;SDS011;55836;49.858;6.756;2022-08-19T02:40:47;13.13;;;11.47;;
68680;SDS011;55836;49.858;6.756;2022-08-19T02:43:14;11.37;;;10.20;;
68680;SDS011;55836;49.858;6.756;2022-08-19T02:45:40;11.47;;;10.57;;
68680;SDS011;55836;49.858;6.756;2022-08-19T02:48:06;11.20;;;10.17;;
68680;SDS011;55836;49.858;6.756;2022-08-19T02:50:36;10.70;;;9.63;;
68680;SDS011;55836;49.858;6.756;2022-08-19T02:53:02;10.43;;;9.53;;
68680;SDS011;55836;49.858;6.756;2022-08-19T02:55:28;13.47;;;10.97;;
68680;SDS011;55836;49.858;6.756;2022-08-19T02:57:54;10.97;;;9.87;;
68680;SDS011;55836;49.858;6.756;2022-08-19T03:00:22;11.10;;;10.10;;
68680;SDS011;55836;49.858;6.756;2022-08-19T03:02:49;10.50;;;9.60;;
68680;SDS011;55836;49.858;6.756;2022-08-19T03:05:15;11.80;;;10.60;;
68680;SDS011;55836;49.858;6.756;2022-08-19T03:07:41;10.93;;;9.93;;
68680;SDS011;55836;49.858;6.756;2022-08-19T03:10:07;11.50;;;10.43;;
68680;SDS011;55836;49.858;6.756;2022-08-19T03:12:37;10.60;;;9.63;;
68680;SDS011;55836;49.858;6.756;2022-08-19T03:15:04;10.47;;;9.47;;
68680;SDS011;55836;49.858;6.756;2022-08-19T03:17:31;11.07;;;9.97;;
68680;SDS011;55836;49.858;6.756;2022-08-19T03:19:57;10.63;;;9.73;;
68680;SDS011;55836;49.858;6.756;2022-08-19T03:22:23;10.70;;;9.60;;
68680;SDS011;55836;49.858;6.756;2022-08-19T03:24:50;11.03;;;9.93;;
68680;SDS011;55836;49.858;6.756;2022-08-19T03:27:16;11.63;;;10.17;;
68680;SDS011;55836;49.858;6.756;2022-08-19T03:29:42;11.27;;;10.27;;
68680;SDS011;55836;49.858;6.756;2022-08-19T03:32:09;10.70;;;9.60;;
68680;SDS011;55836;49.858;6.756;2022-08-19T03:34:37;10.90;;;9.90;;
68680;SDS011;55836;49.858;6.756;2022-08-19T03:37:04;12.33;;;11.00;;
68680;SDS011;55836;49.858;6.756;2022-08-19T03:39:31;11.47;;;10.27;;
68680;SDS011;55836;49.858;6.756;2022-08-19T03:41:57;11.37;;;10.37;;
68680;SDS011;55836;49.858;6.756;2022-08-19T03:44:24;12.30;;;11.17;;
68680;SDS011;55836;49.858;6.756;2022-08-19T03:46:54;10.30;;;9.43;;
68680;SDS011;55836;49.858;6.756;2022-08-19T03:49:22;10.97;;;9.97;;
68680;SDS011;55836;49.858;6.756;2022-08-19T03:51:48;10.50;;;9.60;;
68680;SDS011;55836;49.858;6.756;2022-08-19T03:54:16;10.87;;;9.73;;
68680;SDS011;55836;49.858;6.756;2022-08-19T03:56:43;11.37;;;10.37;;
68680;SDS011;55836;49.858;6.756;2022-08-19T03:59:10;11.03;;;9.93;;
68680;SDS011;55836;49.858;6.756;2022-08-19T04:01:38;10.90;;;9.93;;
68680;SDS011;55836;49.858;6.756;2022-08-19T04:04:04;10.63;;;9.63;;
68680;SDS011;55836;49.858;6.756;2022-08-19T04:06:31;11.23;;;10.20;;
68680;SDS011;55836;49.858;6.756;2022-08-19T04:08:59;11.13;;;10.03;;
68680;SDS011;55836;49.858;6.756;2022-08-19T04:11:27;11.20;;;10.03;;
68680;SDS011;55836;49.858;6.756;2022-08-19T04:13:53;10.90;;;9.90;;
68680;SDS011;55836;49.858;6.756;2022-08-19T04:16:20;10.30;;;9.40;;
68680;SDS011;55836;49.858;6.756;2022-08-19T04:18:47;10.90;;;9.87;;
68680;SDS011;55836;49.858;6.756;2022-08-19T04:21:17;11.57;;;9.30;;
68680;SDS011;55836;49.858;6.756;2022-08-19T04:23:44;11.40;;;10.37;;
68680;SDS011;55836;49.858;6.756;2022-08-19T04:26:17;11.57;;;10.30;;
68680;SDS011;55836;49.858;6.756;2022-08-19T04:28:44;12.80;;;11.67;;
68680;SDS011;55836;49.858;6.756;2022-08-19T04:31:24;14.53;;;12.73;;
68680;SDS011;55836;49.858;6.756;2022-08-19T04:33:51;11.73;;;10.63;;
68680;SDS011;55836;49.858;6.756;2022-08-19T04:36:23;12.77;;;11.47;;
68680;SDS011;55836;49.858;6.756;2022-08-19T04:38:50;11.60;;;10.60;;
68680;SDS011;55836;49.858;6.756;2022-08-19T04:41:18;11.70;;;10.60;;
68680;SDS011;55836;49.858;6.756;2022-08-19T04:44:03;11.43;;;10.43;;
68680;SDS011;55836;49.858;6.756;2022-08-19T04:46:29;12.70;;;11.50;;
68680;SDS011;55836;49.858;6.756;2022-08-19T04:48:56;11.83;;;10.60;;
68680;SDS011;55836;49.858;6.756;2022-08-19T04:51:23;16.00;;;10.57;;
68680;SDS011;55836;49.858;6.756;2022-08-19T04:53:49;11.80;;;10.63;;
68680;SDS011;55836;49.858;6.756;2022-08-19T04:56:16;11.00;;;9.90;;
68680;SDS011;55836;49.858;6.756;2022-08-19T04:58:44;11.97;;;10.87;;
68680;SDS011;55836;49.858;6.756;2022-08-19T05:01:18;11.83;;;10.83;;
68680;SDS011;55836;49.858;6.756;2022-08-19T05:03:44;11.83;;;10.57;;
68680;SDS011;55836;49.858;6.756;2022-08-19T05:06:12;12.33;;;11.20;;
68680;SDS011;55836;49.858;6.756;2022-08-19T05:08:40;13.63;;;11.33;;
68680;SDS011;55836;49.858;6.756;2022-08-19T05:13:40;12.53;;;11.33;;
68680;SDS011;55836;49.858;6.756;2022-08-19T05:16:07;12.50;;;11.33;;
68680;SDS011;55836;49.858;6.756;2022-08-19T05:18:35;11.83;;;10.70;;
68680;SDS011;55836;49.858;6.756;2022-08-19T05:21:20;14.47;;;10.70;;
68680;SDS011;55836;49.858;6.756;2022-08-19T05:24:05;13.87;;;12.47;;
68680;SDS011;55836;49.858;6.756;2022-08-19T05:26:37;14.07;;;12.77;;
68680;SDS011;55836;49.858;6.756;2022-08-19T05:29:03;14.43;;;13.13;;
68680;SDS011;55836;49.858;6.756;2022-08-19T05:31:30;15.37;;;13.67;;
68680;SDS011;55836;49.858;6.756;2022-08-19T05:33:56;14.77;;;13.37;;
68680;SDS011;55836;49.858;6.756;2022-08-19T05:36:27;14.00;;;12.63;;
68680;SDS011;55836;49.858;6.756;2022-08-19T05:38:53;14.40;;;13.03;;
68680;SDS011;55836;49.858;6.756;2022-08-19T05:41:20;13.47;;;12.23;;
68680;SDS011;55836;49.858;6.756;2022-08-19T05:43:54;13.87;;;12.47;;
68680;SDS011;55836;49.858;6.756;2022-08-19T05:46:21;14.50;;;13.10;;
68680;SDS011;55836;49.858;6.756;2022-08-19T05:48:47;14.77;;;12.80;;
68680;SDS011;55836;49.858;6.756;2022-08-19T05:51:13;13.90;;;12.40;;
68680;SDS011;55836;49.858;6.756;2022-08-19T05:53:40;14.20;;;12.90;;
68680;SDS011;55836;49.858;6.756;2022-08-19T05:56:07;17.87;;;13.90;;
68680;SDS011;55836;49.858;6.756;2022-08-19T05:58:34;14.50;;;12.93;;
68680;SDS011;55836;49.858;6.756;2022-08-19T06:01:00;14.00;;;12.63;;
68680;SDS011;55836;49.858;6.756;2022-08-19T06:03:32;14.53;;;13.03;;
68680;SDS011;55836;49.858;6.756;2022-08-19T06:05:58;14.30;;;12.43;;
68680;SDS011;55836;49.858;6.756;2022-08-19T06:08:25;14.50;;;13.00;;
68680;SDS011;55836;49.858;6.756;2022-08-19T06:10:51;13.60;;;12.30;;
68680;SDS011;55836;49.858;6.756;2022-08-19T06:13:17;14.20;;;12.70;;
68680;SDS011;55836;49.858;6.756;2022-08-19T06:15:44;13.53;;;12.33;;
68680;SDS011;55836;49.858;6.756;2022-08-19T06:18:11;14.93;;;13.03;;
68680;SDS011;55836;49.858;6.756;2022-08-19T06:20:37;12.67;;;11.47;;
68680;SDS011;55836;49.858;6.756;2022-08-19T06:23:03;14.07;;;12.27;;
68680;SDS011;55836;49.858;6.756;2022-08-19T06:25:29;13.33;;;12.13;;
68680;SDS011;55836;49.858;6.756;2022-08-19T06:27:55;14.03;;;12.73;;
68680;SDS011;55836;49.858;6.756;2022-08-19T06:30:22;13.20;;;11.63;;
68680;SDS011;55836;49.858;6.756;2022-08-19T06:32:48;13.47;;;12.07;;
68680;SDS011;55836;49.858;6.756;2022-08-19T06:35:14;12.50;;;11.27;;
68680;SDS011;55836;49.858;6.756;2022-08-19T06:37:40;13.37;;;11.97;;
68680;SDS011;55836;49.858;6.756;2022-08-19T06:40:08;14.20;;;12.70;;
68680;SDS011;55836;49.858;6.756;2022-08-19T06:42:35;14.33;;;12.87;;
68680;SDS011;55836;49.858;6.756;2022-08-19T06:45:03;18.87;;;12.90;;
68680;SDS011;55836;49.858;6.756;2022-08-19T06:47:30;14.13;;;12.43;;
68680;SDS011;55836;49.858;6.756;2022-08-19T06:49:57;15.10;;;12.57;;
68680;SDS011;55836;49.858;6.756;2022-08-19T06:52:31;14.63;;;12.50;;
68680;SDS011;55836;49.858;6.756;2022-08-19T06:54:57;13.50;;;12.10;;
68680;SDS011;55836;49.858;6.756;2022-08-19T06:57:24;15.27;;;12.83;;
68680;SDS011;55836;49.858;6.756;2022-08-19T06:59:50;15.20;;;12.77;;
68680;SDS011;55836;49.858;6.756;2022-08-19T07:02:16;13.47;;;12.07;;
68680;SDS011;55836;49.858;6.756;2022-08-19T07:04:42;16.40;;;12.37;;
68680;SDS011;55836;49.858;6.756;2022-08-19T07:07:10;13.27;;;11.60;;
68680;SDS011;55836;49.858;6.756;2022-08-19T07:09:37;15.17;;;11.80;;
68680;SDS011;55836;49.858;6.756;2022-08-19T07:12:04;13.27;;;12.07;;
68680;SDS011;55836;49.858;6.756;2022-08-19T07:14:31;11.77;;;10.73;;
68680;SDS011;55836;49.858;6.756;2022-08-19T07:17:00;14.13;;;10.90;;
68680;SDS011;55836;49.858;6.756;2022-08-19T07:19:26;12.50;;;11.30;;
68680;SDS011;55836;49.858;6.756;2022-08-19T07:21:54;12.80;;;11.57;;
68680;SDS011;55836;49.858;6.756;2022-08-19T07:24:22;15.70;;;11.13;;
68680;SDS011;55836;49.858;6.756;2022-08-19T07:26:49;11.67;;;10.67;;
68680;SDS011;55836;49.858;6.756;2022-08-19T07:29:16;12.90;;;11.70;;
68680;SDS011;55836;49.858;6.756;2022-08-19T07:31:42;14.10;;;12.83;;
68680;SDS011;55836;49.858;6.756;2022-08-19T07:34:09;14.83;;;11.73;;
68680;SDS011;55836;49.858;6.756;2022-08-19T07:36:37;13.13;;;11.80;;
68680;SDS011;55836;49.858;6.756;2022-08-19T07:39:07;12.93;;;11.73;;
68680;SDS011;55836;49.858;6.756;2022-08-19T07:41:34;13.83;;;12.53;;
68680;SDS011;55836;49.858;6.756;2022-08-19T07:44:01;15.60;;;12.40;;
68680;SDS011;55836;49.858;6.756;2022-08-19T07:46:30;13.13;;;11.83;;
68680;SDS011;55836;49.858;6.756;2022-08-19T07:48:56;14.33;;;12.43;;
68680;SDS011;55836;49.858;6.756;2022-08-19T07:51:22;14.07;;;12.63;;
68680;SDS011;55836;49.858;6.756;2022-08-19T07:53:49;13.73;;;12.53;;
68680;SDS011;55836;49.858;6.756;2022-08-19T07:56:16;13.77;;;11.60;;
68680;SDS011;55836;49.858;6.756;2022-08-19T07:58:43;13.30;;;11.90;;
68680;SDS011;55836;49.858;6.756;2022-08-19T08:01:14;13.70;;;12.50;;
68680;SDS011;55836;49.858;6.756;2022-08-19T08:03:41;13.30;;;11.97;;
68680;SDS011;55836;49.858;6.756;2022-08-19T08:06:40;12.67;;;11.47;;
68680;SDS011;55836;49.858;6.756;2022-08-19T08:09:26;13.03;;;11.70;;
68680;SDS011;55836;49.858;6.756;2022-08-19T08:11:54;13.43;;;12.17;;
68680;SDS011;55836;49.858;6.756;2022-08-19T08:14:26;11.93;;;10.93;;
68680;SDS011;55836;49.858;6.756;2022-08-19T08:16:52;18.50;;;12.73;;
68680;SDS011;55836;49.858;6.756;2022-08-19T08:19:20;14.00;;;11.53;;
68680;SDS011;55836;49.858;6.756;2022-08-19T08:21:46;26.07;;;13.47;;
68680;SDS011;55836;49.858;6.756;2022-08-19T08:24:13;14.67;;;11.40;;
68680;SDS011;55836;49.858;6.756;2022-08-19T08:26:39;11.53;;;10.37;;
68680;SDS011;55836;49.858;6.756;2022-08-19T08:29:06;10.70;;;9.70;;
68680;SDS011;55836;49.858;6.756;2022-08-19T08:31:38;11.00;;;9.90;;
68680;SDS011;55836;49.858;6.756;2022-08-19T08:34:04;11.47;;;10.47;;
68680;SDS011;55836;49.858;6.756;2022-08-19T08:36:30;12.07;;;10.90;;
68680;SDS011;55836;49.858;6.756;2022-08-19T08:38:59;11.87;;;10.67;;
68680;SDS011;55836;49.858;6.756;2022-08-19T08:44:17;13.17;;;11.23;;
68680;SDS011;55836;49.858;6.756;2022-08-19T08:46:47;12.00;;;10.90;;
68680;SDS011;55836;49.858;6.756;2022-08-19T08:51:47;12.37;;;11.23;;
68680;SDS011;55836;49.858;6.756;2022-08-19T08:54:15;11.57;;;10.57;;
68680;SDS011;55836;49.858;6.756;2022-08-19T08:56:43;12.67;;;11.43;;
68680;SDS011;55836;49.858;6.756;2022-08-19T08:59:19;11.57;;;10.10;;
68680;SDS011;55836;49.858;6.756;2022-08-19T09:01:46;11.70;;;10.57;;
68680;SDS011;55836;49.858;6.756;2022-08-19T09:04:13;11.90;;;10.80;;
68680;SDS011;55836;49.858;6.756;2022-08-19T09:12:53;15.03;;;12.80;;
68680;SDS011;55836;49.858;6.756;2022-08-19T09:15:06;16.07;;;14.47;;
68680;SDS011;55836;49.858;6.756;2022-08-19T09:17:33;12.97;;;10.97;;
68680;SDS011;55836;49.858;6.756;2022-08-19T09:22:38;11.70;;;10.50;;
68680;SDS011;55836;49.858;6.756;2022-08-19T09:25:05;11.07;;;10.00;;
68680;SDS011;55836;49.858;6.756;2022-08-19T09:27:32;12.90;;;11.60;;
68680;SDS011;55836;49.858;6.756;2022-08-19T09:29:58;14.87;;;13.23;;
68680;SDS011;55836;49.858;6.756;2022-08-19T09:32:24;14.00;;;12.60;;
68680;SDS011;55836;49.858;6.756;2022-08-19T09:34:51;11.97;;;10.73;;
68680;SDS011;55836;49.858;6.756;2022-08-19T09:37:19;11.97;;;10.87;;
68680;SDS011;55836;49.858;6.756;2022-08-19T09:39:46;11.13;;;9.80;;
68680;SDS011;55836;49.858;6.756;2022-08-19T09:42:12;15.40;;;12.37;;
68680;SDS011;55836;49.858;6.756;2022-08-19T09:44:39;12.97;;;11.67;;
68680;SDS011;55836;49.858;6.756;2022-08-19T09:47:06;13.47;;;12.17;;
68680;SDS011;55836;49.858;6.756;2022-08-19T09:49:32;13.90;;;12.50;;
68680;SDS011;55836;49.858;6.756;2022-08-19T09:51:59;14.03;;;11.77;;
68680;SDS011;55836;49.858;6.756;2022-08-19T09:54:25;11.37;;;10.27;;
68680;SDS011;55836;49.858;6.756;2022-08-19T09:56:52;15.10;;;11.50;;
68680;SDS011;55836;49.858;6.756;2022-08-19T09:59:18;10.77;;;9.67;;
68680;SDS011;55836;49.858;6.756;2022-08-19T10:01:44;12.20;;;9.97;;
68680;SDS011;55836;49.858;6.756;2022-08-19T10:04:10;12.97;;;11.80;;
68680;SDS011;55836;49.858;6.756;2022-08-19T10:06:37;11.17;;;10.07;;
68680;SDS011;55836;49.858;6.756;2022-08-19T10:09:05;12.27;;;10.73;;
68680;SDS011;55836;49.858;6.756;2022-08-19T10:11:33;12.93;;;11.03;;
68680;SDS011;55836;49.858;6.756;2022-08-19T10:14:00;10.47;;;9.20;;
68680;SDS011;55836;49.858;6.756;2022-08-19T10:16:26;10.10;;;9.20;;
68680;SDS011;55836;49.858;6.756;2022-08-19T10:18:53;11.47;;;9.47;;
68680;SDS011;55836;49.858;6.756;2022-08-19T10:21:21;12.93;;;11.60;;
68680;SDS011;55836;49.858;6.756;2022-08-19T10:23:49;10.13;;;9.13;;
68680;SDS011;55836;49.858;6.756;2022-08-19T10:26:19;12.17;;;9.90;;
68680;SDS011;55836;49.858;6.756;2022-08-19T10:28:46;9.20;;;8.30;;
68680;SDS011;55836;49.858;6.756;2022-08-19T10:31:16;9.33;;;8.43;;
68680;SDS011;55836;49.858;6.756;2022-08-19T10:33:44;12.03;;;9.90;;
68680;SDS011;55836;49.858;6.756;2022-08-19T10:36:16;11.17;;;10.07;;
68680;SDS011;55836;49.858;6.756;2022-08-19T10:38:42;11.23;;;10.13;;
68680;SDS011;55836;49.858;6.756;2022-08-19T10:41:14;10.57;;;9.20;;
68680;SDS011;55836;49.858;6.756;2022-08-19T10:43:41;11.47;;;10.27;;
68680;SDS011;55836;49.858;6.756;2022-08-19T10:46:11;10.33;;;9.23;;
68680;SDS011;55836;49.858;6.756;2022-08-19T10:48:38;11.60;;;10.37;;
68680;SDS011;55836;49.858;6.756;2022-08-19T10:51:04;9.57;;;8.67;;
68680;SDS011;55836;49.858;6.756;2022-08-19T10:53:49;11.77;;;10.40;;
68680;SDS011;55836;49.858;6.756;2022-08-19T10:56:15;11.90;;;10.80;;
68680;SDS011;55836;49.858;6.756;2022-08-19T10:59:00;11.90;;;10.40;;
68680;SDS011;55836;49.858;6.756;2022-08-19T11:01:28;14.13;;;11.33;;
68680;SDS011;55836;49.858;6.756;2022-08-19T11:03:55;11.50;;;10.37;;
68680;SDS011;55836;49.858;6.756;2022-08-19T11:06:22;12.43;;;10.50;;
68680;SDS011;55836;49.858;6.756;2022-08-19T11:08:54;12.57;;;11.37;;
68680;SDS011;55836;49.858;6.756;2022-08-19T11:11:20;11.20;;;10.10;;
68680;SDS011;55836;49.858;6.756;2022-08-19T11:13:46;9.83;;;8.93;;
68680;SDS011;55836;49.858;6.756;2022-08-19T11:16:15;10.53;;;9.40;;
68680;SDS011;55836;49.858;6.756;2022-08-19T11:18:43;11.20;;;9.40;;
68680;SDS011;55836;49.858;6.756;2022-08-19T11:21:12;8.97;;;8.17;;
68680;SDS011;55836;49.858;6.756;2022-08-19T11:23:38;10.07;;;8.93;;
68680;SDS011;55836;49.858;6.756;2022-08-19T11:26:05;9.47;;;8.57;;
68680;SDS011;55836;49.858;6.756;2022-08-19T11:28:31;8.27;;;7.47;;
68680;SDS011;55836;49.858;6.756;2022-08-19T11:30:57;10.40;;;9.40;;
68680;SDS011;55836;49.858;6.756;2022-08-19T11:33:23;10.93;;;9.73;;
68680;SDS011;55836;49.858;6.756;2022-08-19T11:35:51;10.30;;;9.40;;
68680;SDS011;55836;49.858;6.756;2022-08-19T11:38:17;13.47;;;10.27;;
68680;SDS011;55836;49.858;6.756;2022-08-19T11:40:43;12.57;;;10.00;;
68680;SDS011;55836;49.858;6.756;2022-08-19T11:43:09;11.47;;;10.27;;
68680;SDS011;55836;49.858;6.756;2022-08-19T11:45:35;10.30;;;9.30;;
68680;SDS011;55836;49.858;6.756;2022-08-19T11:48:01;9.93;;;8.93;;
68680;SDS011;55836;49.858;6.756;2022-08-19T11:50:28;9.70;;;8.83;;
68680;SDS011;55836;49.858;6.756;2022-08-19T11:52:55;12.20;;;9.20;;
68680;SDS011;55836;49.858;6.756;2022-08-19T11:55:21;11.03;;;8.23;;
68680;SDS011;55836;49.858;6.756;2022-08-19T11:57:47;8.77;;;7.67;;
68680;SDS011;55836;49.858;6.756;2022-08-19T12:00:13;9.03;;;7.33;;
68680;SDS011;55836;49.858;6.756;2022-08-19T12:02:40;9.47;;;8.40;;
68680;SDS011;55836;49.858;6.756;2022-08-19T12:05:07;10.50;;;8.50;;
68680;SDS011;55836;49.858;6.756;2022-08-19T12:07:33;8.57;;;7.67;;
68680;SDS011;55836;49.858;6.756;2022-08-19T12:09:59;9.50;;;8.50;;
68680;SDS011;55836;49.858;6.756;2022-08-19T12:12:26;8.70;;;7.80;;
68680;SDS011;55836;49.858;6.756;2022-08-19T12:14:53;8.50;;;7.70;;
68680;SDS011;55836;49.858;6.756;2022-08-19T12:17:25;9.40;;;7.83;;
68680;SDS011;55836;49.858;6.756;2022-08-19T12:19:51;10.53;;;9.50;;
68680;SDS011;55836;49.858;6.756;2022-08-19T12:22:18;10.43;;;8.90;;
68680;SDS011;55836;49.858;6.756;2022-08-19T12:24:44;9.30;;;8.40;;
68680;SDS011;55836;49.858;6.756;2022-08-19T12:27:11;11.73;;;8.70;;
68680;SDS011;55836;49.858;6.756;2022-08-19T12:29:37;10.37;;;9.37;;
68680;SDS011;55836;49.858;6.756;2022-08-19T12:32:03;10.53;;;9.43;;
68680;SDS011;55836;49.858;6.756;2022-08-19T12:34:29;10.83;;;9.73;;
68680;SDS011;55836;49.858;6.756;2022-08-19T12:36:59;11.80;;;9.00;;
68680;SDS011;55836;49.858;6.756;2022-08-19T12:39:26;10.40;;;9.40;;
68680;SDS011;55836;49.858;6.756;2022-08-19T12:41:52;13.87;;;10.43;;
68680;SDS011;55836;49.858;6.756;2022-08-19T12:44:18;10.27;;;9.17;;
68680;SDS011;55836;49.858;6.756;2022-08-19T12:46:45;11.23;;;9.87;;
68680;SDS011;55836;49.858;6.756;2022-08-19T12:49:12;9.83;;;8.93;;
68680;SDS011;55836;49.858;6.756;2022-08-19T12:51:38;9.60;;;8.60;;
68680;SDS011;55836;49.858;6.756;2022-08-19T12:54:04;10.70;;;9.53;;
68680;SDS011;55836;49.858;6.756;2022-08-19T12:56:31;10.80;;;9.30;;
68680;SDS011;55836;49.858;6.756;2022-08-19T12:59:00;9.83;;;8.83;;
68680;SDS011;55836;49.858;6.756;2022-08-19T13:01:27;11.63;;;9.93;;
68680;SDS011;55836;49.858;6.756;2022-08-19T13:03:55;12.27;;;9.40;;
68680;SDS011;55836;49.858;6.756;2022-08-19T13:06:21;9.60;;;8.70;;
68680;SDS011;55836;49.858;6.756;2022-08-19T13:08:47;10.37;;;8.80;;
68680;SDS011;55836;49.858;6.756;2022-08-19T13:11:15;11.67;;;8.77;;
68680;SDS011;55836;49.858;6.756;2022-08-19T13:13:43;10.43;;;8.90;;
68680;SDS011;55836;49.858;6.756;2022-08-19T13:16:10;10.13;;;8.63;;
68680;SDS011;55836;49.858;6.756;2022-08-19T13:18:36;9.30;;;8.40;;
68680;SDS011;55836;49.858;6.756;2022-08-19T13:21:06;10.60;;;9.50;;
68680;SDS011;55836;49.858;6.756;2022-08-19T13:23:33;10.73;;;9.63;;
68680;SDS011;55836;49.858;6.756;2022-08-19T13:26:00;11.53;;;8.73;;
68680;SDS011;55836;49.858;6.756;2022-08-19T13:28:27;10.87;;;9.77;;
68680;SDS011;55836;49.858;6.756;2022-08-19T13:31:17;11.00;;;9.40;;
68680;SDS011;55836;49.858;6.756;2022-08-19T13:34:02;10.00;;;9.10;;
68680;SDS011;55836;49.858;6.756;2022-08-19T13:36:29;9.80;;;8.77;;
68680;SDS011;55836;49.858;6.756;2022-08-19T13:38:55;10.60;;;9.33;;
68680;SDS011;55836;49.858;6.756;2022-08-19T13:41:21;10.17;;;8.27;;
68680;SDS011;55836;49.858;6.756;2022-08-19T13:43:47;8.37;;;7.57;;
68680;SDS011;55836;49.858;6.756;2022-08-19T13:46:14;8.37;;;7.57;;
68680;SDS011;55836;49.858;6.756;2022-08-19T13:48:40;9.67;;;7.57;;
68680;SDS011;55836;49.858;6.756;2022-08-19T13:51:07;10.60;;;6.67;;
68680;SDS011;55836;49.858;6.756;2022-08-19T13:53:37;7.80;;;7.10;;
68680;SDS011;55836;49.858;6.756;2022-08-19T13:56:07;8.97;;;7.40;;
68680;SDS011;55836;49.858;6.756;2022-08-19T13:58:35;7.30;;;6.60;;
68680;SDS011;55836;49.858;6.756;2022-08-19T14:01:01;7.77;;;7.07;;
68680;SDS011;55836;49.858;6.756;2022-08-19T14:03:27;7.63;;;7.00;;
68680;SDS011;55836;49.858;6.756;2022-08-19T14:05:53;8.83;;;8.00;;
68680;SDS011;55836;49.858;6.756;2022-08-19T14:08:19;9.03;;;7.93;;
68680;SDS011;55836;49.858;6.756;2022-08-19T14:10:45;8.93;;;8.03;;
68680;SDS011;55836;49.858;6.756;2022-08-19T14:13:16;9.10;;;8.17;;
68680;SDS011;55836;49.858;6.756;2022-08-19T14:15:42;9.47;;;7.93;;
68680;SDS011;55836;49.858;6.756;2022-08-19T14:18:08;8.53;;;7.47;;
68680;SDS011;55836;49.858;6.756;2022-08-19T14:20:35;8.20;;;7.40;;
68680;SDS011;55836;49.858;6.756;2022-08-19T14:23:01;9.17;;;7.27;;
68680;SDS011;55836;49.858;6.756;2022-08-19T14:25:28;8.23;;;7.43;;
68680;SDS011;55836;49.858;6.756;2022-08-19T14:27:55;8.20;;;7.40;;
68680;SDS011;55836;49.858;6.756;2022-08-19T14:30:22;7.97;;;7.17;;
68680;SDS011;55836;49.858;6.756;2022-08-19T14:32:50;7.17;;;6.47;;
68680;SDS011;55836;49.858;6.756;2022-08-19T14:35:16;8.23;;;6.20;;
68680;SDS011;55836;49.858;6.756;2022-08-19T14:37:43;8.07;;;5.93;;
68680;SDS011;55836;49.858;6.756;2022-08-19T14:40:10;6.13;;;5.57;;
68680;SDS011;55836;49.858;6.756;2022-08-19T14:42:36;9.07;;;5.73;;
68680;SDS011;55836;49.858;6.756;2022-08-19T14:45:02;6.53;;;5.83;;
68680;SDS011;55836;49.858;6.756;2022-08-19T14:47:30;5.80;;;5.07;;
68680;SDS011;55836;49.858;6.756;2022-08-19T14:49:56;5.50;;;5.00;;